Time;durP1;ratioP1;P1;durP2;ratioP2;P2;SDS_P1;SDS_P2;PMS_P1;PMS_P2;Temp;Humidity;BMP_temperature;BMP_pressure;BME280_temperature;BME280_humidity;BME280_pressure;Samples;Min_cycle;Max_cycle;Signal;HPM_P1;HPM_P2
2021/05/04 00:01:14;;;;;;;;;;;;;;;20.04;40.87;99220.28;2167074;40;114960;-57
2021/05/04 00:02:45;;;;;;;;;;;;;;;20.03;40.50;99201.03;2168308;40;115835;-53
2021/05/04 00:04:16;;;;;;;;;;;;;;;20.03;40.88;99193.44;2168504;40;117114;-56
2021/05/04 00:05:47;;;;;;;;;;;;;;;20.01;40.62;99190.16;2167998;40;113986;-57
2021/05/04 00:07:18;;;;;;;;;;;;;;;20.02;40.77;99199.38;2167699;40;114494;-59
2021/05/04 00:08:50;;;;;;;;;;;;;;;20.02;40.92;99213.41;2167576;40;115379;-56
2021/05/04 00:10:21;;;;;;;;;;;;;;;20.00;40.71;99210.94;2167606;40;114880;-56
2021/05/04 00:11:53;;;;;;;;;;;;;;;20.03;40.84;99206.63;2169903;40;114057;-58
2021/05/04 00:13:24;;;;;;;;;;;;;;;19.98;40.90;99196.47;2165550;40;114754;-55
2021/05/04 00:14:55;;;;;;;;;;;;;;;19.98;40.81;99208.50;2166341;40;115676;-56
2021/05/04 00:16:44;;;;;;;;;;;;;;;19.97;40.65;99195.66;2163961;40;114420;-57
2021/05/04 00:18:15;;;;;;;;;;;;;;;19.95;40.81;99192.34;2166389;40;115765;-58
2021/05/04 00:19:47;;;;;;;;;;;;;;;19.93;40.83;99197.50;2165145;40;116147;-58
2021/05/04 00:21:18;;;;;;;;;;;;;;;19.95;40.66;99205.53;2163454;40;114714;-56
2021/05/04 00:22:49;;;;;;;;;;;;;;;19.92;41.24;99206.25;2167561;40;115805;-55
2021/05/04 00:24:20;;;;;;;;;;;;;;;19.92;40.87;99204.28;2163568;40;114887;-54
2021/05/04 00:25:51;;;;;;;;;;;;;;;19.90;40.87;99203.78;2167711;40;116022;-60
2021/05/04 00:27:22;;;;;;;;;;;;;;;19.89;40.87;99204.97;2168192;40;116183;-56
2021/05/04 00:28:54;;;;;;;;;;;;;;;19.89;40.81;99196.56;2167997;40;115841;-53
2021/05/04 00:30:25;;;;;;;;;;;;;;;19.89;40.52;99188.16;2167361;40;115785;-55
2021/05/04 00:31:56;;;;;;;;;;;;;;;19.88;40.82;99186.50;2165350;40;115734;-59
2021/05/04 00:33:27;;;;;;;;;;;;;;;19.87;40.91;99190.47;2165682;40;116206;-57
2021/05/04 00:34:59;;;;;;;;;;;;;;;19.90;40.71;99188.94;2167576;40;115542;-55
2021/05/04 00:36:30;;;;;;;;;;;;;;;19.87;40.97;99196.09;2165122;40;114032;-54
2021/05/04 00:38:01;;;;;;;;;;;;;;;19.85;40.62;99192.00;2168156;40;114111;-58
2021/05/04 00:39:36;;;;;;;;;;;;;;;19.88;40.83;99200.53;2167898;40;113922;-55
2021/05/04 00:41:07;;;;;;;;;;;;;;;19.87;40.93;99201.69;2167016;40;114304;-57
2021/05/04 00:42:38;;;;;;;;;;;;;;;19.86;40.67;99191.63;2167232;40;114139;-58
2021/05/04 00:44:09;;;;;;;;;;;;;;;19.86;40.95;99196.41;2168042;40;113892;-55
2021/05/04 00:45:40;;;;;;;;;;;;;;;19.87;40.75;99192.47;2166366;40;113816;-56
2021/05/04 00:47:11;;;;;;;;;;;;;;;19.86;40.80;99188.84;2168159;40;114055;-58
2021/05/04 00:48:43;;;;;;;;;;;;;;;19.83;40.72;99200.75;2165966;40;113960;-58
2021/05/04 00:50:14;;;;;;;;;;;;;;;19.79;40.95;99194.19;2167784;40;113752;-56
2021/05/04 00:51:46;;;;;;;;;;;;;;;19.77;40.90;99199.31;2168583;40;113947;-57
2021/05/04 00:53:17;;;;;;;;;;;;;;;19.78;40.84;99184.16;2167130;40;113696;-55
2021/05/04 00:54:49;;;;;;;;;;;;;;;19.74;41.02;99180.41;2168073;40;114106;-55
2021/05/04 00:56:20;;;;;;;;;;;;;;;19.73;41.13;99191.94;2170449;40;113696;-55
2021/05/04 00:57:53;;;;;;;;;;;;;;;19.78;40.58;99183.31;2167533;40;114905;-56
2021/05/04 00:59:24;;;;;;;;;;;;;;;19.75;40.72;99212.06;2167505;40;115087;-57
2021/05/04 01:00:56;;;;;;;;;;;;;;;19.72;40.87;99190.31;2167173;40;115046;-59
2021/05/04 01:02:28;;;;;;;;;;;;;;;19.74;40.52;99188.00;2167926;40;114902;-54
2021/05/04 01:03:59;;;;;;;;;;;;;;;19.70;40.92;99187.88;2167485;40;114582;-56
2021/05/04 01:05:30;;;;;;;;;;;;;;;19.68;40.90;99184.56;2167460;40;115072;-57
2021/05/04 01:07:01;;;;;;;;;;;;;;;19.68;40.65;99170.56;2166618;40;115011;-58
2021/05/04 01:08:33;;;;;;;;;;;;;;;19.72;40.59;99179.09;2168273;40;114888;-58
2021/05/04 01:10:05;;;;;;;;;;;;;;;19.69;40.72;99160.19;2167353;40;114998;-56
2021/05/04 01:11:36;;;;;;;;;;;;;;;19.67;40.65;99156.94;2167044;40;115108;-56
2021/05/04 01:13:07;;;;;;;;;;;;;;;19.68;40.57;99150.13;2167759;40;114982;-56
2021/05/04 01:14:39;;;;;;;;;;;;;;;19.68;40.48;99162.16;2166328;40;115481;-56
2021/05/04 01:16:10;;;;;;;;;;;;;;;19.68;40.90;99170.56;2162752;40;114876;-56
2021/05/04 01:17:41;;;;;;;;;;;;;;;19.69;40.85;99161.00;2170213;40;114989;-56
2021/05/04 01:19:12;;;;;;;;;;;;;;;19.70;40.77;99157.03;2161396;40;116114;-57
2021/05/04 01:20:47;;;;;;;;;;;;;;;19.66;40.98;99161.72;2160113;40;115786;-56
2021/05/04 01:22:18;;;;;;;;;;;;;;;19.66;40.74;99172.09;2167084;40;114619;-57
2021/05/04 01:23:50;;;;;;;;;;;;;;;19.64;41.07;99146.38;2163241;40;114941;-57
2021/05/04 01:25:21;;;;;;;;;;;;;;;19.63;41.28;99165.19;2167494;40;115606;-57
2021/05/04 01:26:52;;;;;;;;;;;;;;;19.62;40.90;99163.56;2172880;40;115631;-55
2021/05/04 01:28:23;;;;;;;;;;;;;;;19.60;40.86;99171.50;2169356;40;116039;-55
2021/05/04 01:29:54;;;;;;;;;;;;;;;19.63;40.81;99170.78;2167830;40;116341;-56
2021/05/04 01:31:25;;;;;;;;;;;;;;;19.62;40.92;99174.78;2165414;40;115593;-56
2021/05/04 01:33:00;;;;;;;;;;;;;;;19.62;40.97;99165.56;2167075;40;116081;-56
2021/05/04 01:34:32;;;;;;;;;;;;;;;19.62;41.07;99168.34;2167543;40;114622;-55
2021/05/04 01:36:03;;;;;;;;;;;;;;;19.59;41.23;99158.63;2167024;40;114991;-58
2021/05/04 01:37:36;;;;;;;;;;;;;;;19.57;41.31;99174.16;2167856;40;115591;-55
2021/05/04 01:39:08;;;;;;;;;;;;;;;19.60;41.11;99165.88;2167338;40;115746;-57
2021/05/04 01:40:39;;;;;;;;;;;;;;;19.60;41.02;99167.88;2167165;40;113625;-54
2021/05/04 01:42:10;;;;;;;;;;;;;;;19.60;40.68;99159.47;2167463;40;114471;-55
2021/05/04 01:43:41;;;;;;;;;;;;;;;19.61;40.96;99169.50;2166688;40;113576;-57
2021/05/04 01:45:16;;;;;;;;;;;;;;;19.60;40.80;99170.66;2162300;40;113596;-57
2021/05/04 01:46:47;;;;;;;;;;;;;;;19.60;40.78;99165.88;2167391;40;113622;-59
2021/05/04 01:48:18;;;;;;;;;;;;;;;19.60;40.86;99168.69;2162265;40;113696;-56
2021/05/04 01:49:49;;;;;;;;;;;;;;;19.59;40.64;99178.25;2166300;40;113971;-57
2021/05/04 01:51:21;;;;;;;;;;;;;;;19.58;40.84;99162.59;2170481;40;113926;-55
2021/05/04 01:52:52;;;;;;;;;;;;;;;19.57;40.82;99174.16;2165928;40;113765;-57
2021/05/04 01:54:24;;;;;;;;;;;;;;;19.58;40.87;99181.41;2167301;40;114414;-56
2021/05/04 01:55:55;;;;;;;;;;;;;;;19.59;40.95;99177.41;2166833;40;113986;-58
2021/05/04 01:57:27;;;;;;;;;;;;;;;19.56;41.10;99162.13;2163569;40;113986;-57
2021/05/04 01:59:02;;;;;;;;;;;;;;;19.57;40.89;99154.56;2162807;40;113937;-57
2021/05/04 02:00:33;;;;;;;;;;;;;;;19.57;41.21;99163.78;2167675;40;113688;-55
2021/05/04 02:02:04;;;;;;;;;;;;;;;19.53;41.07;99162.84;2169949;40;113996;-55
2021/05/04 02:03:35;;;;;;;;;;;;;;;19.54;41.12;99161.66;2164162;40;114961;-55
2021/05/04 02:05:07;;;;;;;;;;;;;;;19.54;41.03;99154.06;2166725;40;114909;-56
2021/05/04 02:06:38;;;;;;;;;;;;;;;19.57;40.94;99160.97;2166637;40;115193;-57
2021/05/04 02:08:09;;;;;;;;;;;;;;;19.53;40.85;99157.25;2167304;40;114933;-55
2021/05/04 02:09:40;;;;;;;;;;;;;;;19.52;41.09;99161.19;2164599;40;115178;-57
2021/05/04 02:11:12;;;;;;;;;;;;;;;19.52;40.76;99158.41;2168004;40;115074;-55
2021/05/04 02:12:44;;;;;;;;;;;;;;;19.50;40.87;99166.31;2168455;40;115133;-53
2021/05/04 02:14:15;;;;;;;;;;;;;;;19.50;40.81;99149.50;2163269;40;115145;-56
2021/05/04 02:15:46;;;;;;;;;;;;;;;19.49;40.82;99154.28;2166301;40;114948;-56
2021/05/04 02:17:21;;;;;;;;;;;;;;;19.49;40.69;99170.25;2168761;40;115491;-56
2021/05/04 02:18:53;;;;;;;;;;;;;;;19.49;40.72;99159.06;2168281;40;114926;-56
2021/05/04 02:20:24;;;;;;;;;;;;;;;19.50;40.86;99171.91;2168159;40;114891;-54
2021/05/04 02:21:55;;;;;;;;;;;;;;;19.48;40.78;99175.09;2168413;40;115157;-58
2021/05/04 02:23:26;;;;;;;;;;;;;;;19.49;40.65;99153.47;2171233;40;114959;-54
2021/05/04 02:24:57;;;;;;;;;;;;;;;19.49;40.82;99156.25;2168378;40;115539;-55
2021/05/04 02:26:28;;;;;;;;;;;;;;;19.48;40.68;99151.84;2168446;40;116000;-54
2021/05/04 02:27:59;;;;;;;;;;;;;;;19.46;40.67;99170.97;2164527;40;115591;-57
2021/05/04 02:29:34;;;;;;;;;;;;;;;19.45;40.93;99161.75;2171434;40;115911;-53
2021/05/04 02:31:07;;;;;;;;;;;;;;;19.47;40.68;99159.44;2167825;40;115617;-58
2021/05/04 02:32:39;;;;;;;;;;;;;;;19.45;40.74;99164.53;2168374;40;115680;-57
2021/05/04 02:34:10;;;;;;;;;;;;;;;19.46;40.50;99179.38;2168427;40;116176;-57
2021/05/04 02:35:41;;;;;;;;;;;;;;;19.47;40.51;99178.22;2167822;40;115006;-55
2021/05/04 02:37:12;;;;;;;;;;;;;;;19.44;40.79;99181.72;2168007;40;114704;-58
2021/05/04 02:38:44;;;;;;;;;;;;;;;19.44;40.52;99178.91;2168413;40;115717;-56
2021/05/04 02:40:15;;;;;;;;;;;;;;;19.43;40.66;99174.44;2168513;40;115612;-55
2021/05/04 02:41:46;;;;;;;;;;;;;;;19.44;40.37;99188.09;2167045;40;114851;-57
2021/05/04 02:43:17;;;;;;;;;;;;;;;19.43;40.51;99182.84;2165155;40;116008;-58
2021/05/04 02:44:48;;;;;;;;;;;;;;;19.43;40.48;99172.50;2170216;40;115729;-57
2021/05/04 02:46:19;;;;;;;;;;;;;;;19.43;40.33;99185.63;2167840;40;114349;-55
2021/05/04 02:47:51;;;;;;;;;;;;;;;19.44;40.29;99176.91;2173325;40;114090;-55
2021/05/04 02:49:22;;;;;;;;;;;;;;;19.41;40.66;99191.56;2169303;40;113769;-58
2021/05/04 02:50:53;;;;;;;;;;;;;;;19.40;40.43;99189.09;2168372;40;113851;-55
2021/05/04 02:52:24;;;;;;;;;;;;;;;19.43;40.65;99180.88;2166984;40;114481;-53
2021/05/04 02:53:55;;;;;;;;;;;;;;;19.42;40.34;99173.63;2168359;40;113945;-58
2021/05/04 02:55:27;;;;;;;;;;;;;;;19.37;40.75;99179.41;2167708;40;114088;-52
2021/05/04 02:56:59;;;;;;;;;;;;;;;19.39;40.70;99177.13;2164467;40;114210;-57
2021/05/04 02:58:30;;;;;;;;;;;;;;;19.42;40.58;99173.63;2160817;40;114119;-57
2021/05/04 03:00:02;;;;;;;;;;;;;;;19.39;40.73;99179.09;2165920;40;115665;-55
2021/05/04 03:01:33;;;;;;;;;;;;;;;19.40;40.91;99175.94;2166215;40;113702;-54
2021/05/04 03:03:05;;;;;;;;;;;;;;;19.39;40.42;99174.31;2167257;40;114041;-56
2021/05/04 03:04:36;;;;;;;;;;;;;;;19.37;40.52;99167.41;2161354;40;113940;-58
2021/05/04 03:06:07;;;;;;;;;;;;;;;19.38;40.67;99189.47;2168594;40;114308;-58
2021/05/04 03:07:38;;;;;;;;;;;;;;;19.39;40.63;99179.91;2168318;40;115012;-55
2021/05/04 03:09:09;;;;;;;;;;;;;;;19.37;40.56;99181.41;2167606;40;115386;-57
2021/05/04 03:10:40;;;;;;;;;;;;;;;19.37;40.66;99198.22;2168436;40;115238;-57
2021/05/04 03:12:11;;;;;;;;;;;;;;;19.37;40.60;99175.81;2168438;40;115626;-56
2021/05/04 03:13:42;;;;;;;;;;;;;;;19.37;40.53;99184.19;2167972;40;114402;-56
2021/05/04 03:15:14;;;;;;;;;;;;;;;19.34;40.62;99177.31;2167461;40;114929;-57
2021/05/04 03:16:45;;;;;;;;;;;;;;;19.35;40.49;99180.94;2167741;40;115611;-57
2021/05/04 03:18:16;;;;;;;;;;;;;;;19.34;40.39;99182.09;2167871;40;114937;-54
2021/05/04 03:19:48;;;;;;;;;;;;;;;19.35;40.61;99190.13;2166824;40;114934;-53
2021/05/04 03:21:19;;;;;;;;;;;;;;;19.33;40.55;99186.88;2167264;40;115575;-59
2021/05/04 03:22:50;;;;;;;;;;;;;;;19.32;40.37;99187.22;2168159;40;115000;-56
2021/05/04 03:24:21;;;;;;;;;;;;;;;19.32;40.37;99178.81;2166849;40;115103;-56
2021/05/04 03:25:52;;;;;;;;;;;;;;;19.32;40.44;99210.44;2167434;40;114959;-55
2021/05/04 03:27:24;;;;;;;;;;;;;;;19.29;40.38;99177.53;2165375;40;114954;-58
2021/05/04 03:28:55;;;;;;;;;;;;;;;19.28;40.33;99167.47;2168028;40;114691;-58
2021/05/04 03:30:28;;;;;;;;;;;;;;;19.29;40.27;99163.53;2166924;40;115526;-55
2021/05/04 03:31:59;;;;;;;;;;;;;;;19.29;40.25;99174.72;2167395;40;115627;-55
2021/05/04 03:33:30;;;;;;;;;;;;;;;19.28;40.30;99163.84;2168428;40;116021;-57
2021/05/04 03:35:02;;;;;;;;;;;;;;;19.28;40.20;99166.66;2167839;40;115662;-58
2021/05/04 03:36:33;;;;;;;;;;;;;;;19.29;40.33;99168.31;2167190;40;116483;-55
2021/05/04 03:38:04;;;;;;;;;;;;;;;19.27;40.34;99174.25;2167492;40;115569;-57
2021/05/04 03:39:35;;;;;;;;;;;;;;;19.28;40.53;99161.06;2167823;40;116227;-55
2021/05/04 03:41:06;;;;;;;;;;;;;;;19.26;40.51;99161.41;2167505;40;115712;-57
2021/05/04 03:42:37;;;;;;;;;;;;;;;19.29;40.21;99177.53;2167660;40;115498;-53
2021/05/04 03:44:08;;;;;;;;;;;;;;;19.26;40.32;99169.00;2167712;40;115923;-55
2021/05/04 03:45:42;;;;;;;;;;;;;;;19.26;40.36;99181.00;2167674;40;115610;-54
2021/05/04 03:47:13;;;;;;;;;;;;;;;19.28;40.36;99178.69;2167598;40;115513;-56
2021/05/04 03:48:45;;;;;;;;;;;;;;;19.26;40.38;99175.41;2164701;40;116037;-56
2021/05/04 03:50:19;;;;;;;;;;;;;;;19.27;40.32;99176.22;2163642;40;115483;-56
2021/05/04 03:51:50;;;;;;;;;;;;;;;19.26;40.33;99181.00;2165602;40;114042;-58
2021/05/04 03:53:21;;;;;;;;;;;;;;;19.28;40.45;99186.25;2167845;40;113821;-59
2021/05/04 03:54:52;;;;;;;;;;;;;;;19.23;40.76;99178.88;2168401;40;114308;-54
2021/05/04 03:56:23;;;;;;;;;;;;;;;19.25;40.39;99184.16;2167254;40;114325;-56
2021/05/04 03:57:54;;;;;;;;;;;;;;;19.24;40.56;99174.13;2164795;40;113892;-58
2021/05/04 03:59:25;;;;;;;;;;;;;;;19.25;40.29;99182.19;2167370;40;113797;-54
2021/05/04 04:00:56;;;;;;;;;;;;;;;19.23;40.51;99180.88;2170113;40;113697;-56
2021/05/04 04:02:27;;;;;;;;;;;;;;;19.24;40.62;99188.09;2171060;40;113689;-58
2021/05/04 04:03:59;;;;;;;;;;;;;;;19.21;40.61;99191.59;2167370;40;115340;-56
2021/05/04 04:05:30;;;;;;;;;;;;;;;19.20;40.59;99179.59;2166656;40;113943;-56
2021/05/04 04:07:01;;;;;;;;;;;;;;;19.20;40.60;99178.75;2166306;40;113971;-55
2021/05/04 04:08:32;;;;;;;;;;;;;;;19.19;40.36;99177.13;2166012;40;113750;-55
2021/05/04 04:10:04;;;;;;;;;;;;;;;19.21;40.27;99172.00;2167375;40;113865;-58
2021/05/04 04:11:36;;;;;;;;;;;;;;;19.19;40.64;99174.31;2169286;40;114241;-57
2021/05/04 04:13:07;;;;;;;;;;;;;;;19.17;40.49;99171.84;2167882;40;115522;-56
2021/05/04 04:14:38;;;;;;;;;;;;;;;19.16;40.63;99181.44;2167651;40;114839;-57
2021/05/04 04:16:09;;;;;;;;;;;;;;;19.16;40.57;99170.25;2168183;40;115068;-58
2021/05/04 04:17:41;;;;;;;;;;;;;;;19.17;40.37;99182.25;2167813;40;115527;-56
2021/05/04 04:19:12;;;;;;;;;;;;;;;19.17;40.37;99166.25;2168100;40;114827;-53
2021/05/04 04:20:43;;;;;;;;;;;;;;;19.15;40.55;99173.38;2167534;40;114925;-56
2021/05/04 04:22:14;;;;;;;;;;;;;;;19.15;40.37;99162.16;2167132;40;114924;-54
2021/05/04 04:23:45;;;;;;;;;;;;;;;19.18;40.52;99164.28;2167444;40;115010;-55
2021/05/04 04:25:17;;;;;;;;;;;;;;;19.14;40.67;99166.13;2166627;40;115167;-54
2021/05/04 04:26:48;;;;;;;;;;;;;;;19.15;40.33;99164.97;2167902;40;115510;-53
2021/05/04 04:28:19;;;;;;;;;;;;;;;19.14;40.37;99177.31;2167144;40;115241;-56
2021/05/04 04:29:50;;;;;;;;;;;;;;;19.13;40.44;99170.06;2165765;40;114925;-58
2021/05/04 04:31:21;;;;;;;;;;;;;;;19.14;40.56;99166.13;2167589;40;115073;-56
2021/05/04 04:32:52;;;;;;;;;;;;;;;19.09;40.65;99173.56;2170800;40;115071;-55
2021/05/04 04:34:24;;;;;;;;;;;;;;;19.09;40.51;99165.19;2160633;40;115653;-56
2021/05/04 04:35:55;;;;;;;;;;;;;;;19.10;40.41;99164.03;2165407;40;115576;-55
2021/05/04 04:37:26;;;;;;;;;;;;;;;19.12;40.48;99163.69;2165834;40;115622;-58
2021/05/04 04:38:57;;;;;;;;;;;;;;;19.10;40.45;99160.41;2160281;40;115637;-58
2021/05/04 04:40:37;;;;;;;;;;;;;;;19.07;40.52;99164.72;2164064;40;115649;-57
2021/05/04 04:42:08;;;;;;;;;;;;;;;19.10;40.34;99161.22;2165461;40;115423;-56
2021/05/04 04:43:39;;;;;;;;;;;;;;;19.09;40.45;99175.53;2166537;40;116391;-56
2021/05/04 04:45:11;;;;;;;;;;;;;;;19.06;40.48;99176.25;2166701;40;115909;-58
2021/05/04 04:46:44;;;;;;;;;;;;;;;19.05;40.67;99167.03;2165542;40;115711;-56
2021/05/04 04:48:16;;;;;;;;;;;;;;;19.04;40.71;99168.19;2165149;40;116053;-56
2021/05/04 04:49:47;;;;;;;;;;;;;;;19.05;40.71;99174.59;2165530;40;115707;-55
2021/05/04 04:51:18;;;;;;;;;;;;;;;19.01;40.67;99180.06;2167237;40;115572;-55
2021/05/04 04:52:49;;;;;;;;;;;;;;;19.02;41.12;99187.31;2166061;40;115596;-58
2021/05/04 04:54:20;;;;;;;;;;;;;;;19.00;40.89;99184.03;2170322;40;115532;-57
2021/05/04 04:55:52;;;;;;;;;;;;;;;19.00;40.83;99172.81;2167881;40;113616;-58
2021/05/04 04:57:23;;;;;;;;;;;;;;;19.01;40.98;99168.06;2167785;40;113930;-57
2021/05/04 04:58:54;;;;;;;;;;;;;;;19.02;40.69;99170.50;2167722;40;113890;-55
2021/05/04 05:00:25;;;;;;;;;;;;;;;19.03;40.96;99183.31;2164281;40;114162;-57
2021/05/04 05:01:56;;;;;;;;;;;;;;;19.08;40.63;99185.91;2163030;40;114100;-55
2021/05/04 05:03:27;;;;;;;;;;;;;;;19.14;41.12;99205.31;2160931;40;113670;-55
2021/05/04 05:04:59;;;;;;;;;;;;;;;19.19;41.08;99219.13;2165824;40;113833;-58
2021/05/04 05:06:30;;;;;;;;;;;;;;;19.22;41.01;99210.84;2167542;40;113951;-57
2021/05/04 05:08:01;;;;;;;;;;;;;;;19.25;41.30;99212.16;2168159;40;113827;-55
2021/05/04 05:09:35;;;;;;;;;;;;;;;19.25;41.32;99220.56;2167688;40;113869;-56
2021/05/04 05:11:06;;;;;;;;;;;;;;;19.28;41.50;99217.06;2167130;40;114466;-54
2021/05/04 05:12:38;;;;;;;;;;;;;;;19.30;41.22;99240.78;2168049;40;114117;-57
2021/05/04 05:14:09;;;;;;;;;;;;;;;19.35;41.26;99237.75;2168054;40;113687;-55
2021/05/04 05:15:41;;;;;;;;;;;;;;;19.40;41.37;99236.72;2167883;40;113921;-56
2021/05/04 05:17:12;;;;;;;;;;;;;;;19.45;41.33;99239.34;2169573;40;113707;-57
2021/05/04 05:18:44;;;;;;;;;;;;;;;19.48;41.18;99252.69;2168159;40;114963;-57
2021/05/04 05:20:15;;;;;;;;;;;;;;;19.53;41.53;99253.28;2167764;40;115483;-58
2021/05/04 05:21:46;;;;;;;;;;;;;;;19.57;41.39;99250.63;2166987;40;115125;-56
2021/05/04 05:23:18;;;;;;;;;;;;;;;19.64;41.30;99261.25;2168068;40;115462;-57
2021/05/04 05:24:49;;;;;;;;;;;;;;;19.68;41.51;99265.00;2166043;40;115087;-57
2021/05/04 05:26:20;;;;;;;;;;;;;;;19.72;41.34;99265.97;2167926;40;114807;-57
2021/05/04 05:27:51;;;;;;;;;;;;;;;19.76;41.37;99270.53;2166929;40;114884;-54
2021/05/04 05:29:22;;;;;;;;;;;;;;;19.80;41.47;99273.50;2164223;40;115022;-58
2021/05/04 05:30:54;;;;;;;;;;;;;;;19.84;41.26;99278.06;2167194;40;115025;-54
2021/05/04 05:32:25;;;;;;;;;;;;;;;19.88;41.60;99276.19;2168163;40;115387;-54
2021/05/04 05:33:56;;;;;;;;;;;;;;;19.92;41.72;99293.97;2167413;40;115790;-55
2021/05/04 05:35:27;;;;;;;;;;;;;;;19.97;41.30;99290.94;2168103;40;114959;-56
2021/05/04 05:36:58;;;;;;;;;;;;;;;20.01;41.27;99307.06;2167315;40;115265;-56
2021/05/04 05:38:29;;;;;;;;;;;;;;;20.06;41.25;99318.06;2170481;40;115159;-59
2021/05/04 05:40:01;;;;;;;;;;;;;;;20.11;41.03;99309.44;2167932;40;114560;-54
2021/05/04 05:41:32;;;;;;;;;;;;;;;20.13;41.12;99319.13;2167525;40;115703;-54
2021/05/04 05:43:03;;;;;;;;;;;;;;;20.17;41.00;99328.50;2168583;40;115887;-57
2021/05/04 05:44:35;;;;;;;;;;;;;;;20.22;40.74;99333.06;2170014;40;116269;-56
2021/05/04 05:46:06;;;;;;;;;;;;;;;20.26;40.93;99328.44;2167540;40;115652;-56
2021/05/04 05:47:37;;;;;;;;;;;;;;;20.29;40.72;99338.97;2174369;40;116180;-57
2021/05/04 05:49:10;;;;;;;;;;;;;;;20.34;40.59;99341.56;2169363;40;114723;-56
2021/05/04 05:50:41;;;;;;;;;;;;;;;20.38;40.51;99357.38;2169329;40;114109;-55
2021/05/04 05:52:12;;;;;;;;;;;;;;;20.42;40.24;99346.25;2167688;40;115533;-55
2021/05/04 05:53:43;;;;;;;;;;;;;;;20.45;40.06;99358.75;2168038;40;115482;-59
2021/05/04 05:55:14;;;;;;;;;;;;;;;20.48;40.19;99364.53;2169450;40;113996;-57
2021/05/04 05:56:46;;;;;;;;;;;;;;;20.52;39.92;99365.47;2162588;40;116226;-57
2021/05/04 05:58:17;;;;;;;;;;;;;;;20.56;39.98;99362.78;2167792;40;115655;-54
2021/05/04 05:59:48;;;;;;;;;;;;;;;20.59;39.88;99365.72;2171497;40;115547;-57
2021/05/04 06:01:19;;;;;;;;;;;;;;;20.63;39.77;99368.63;2169494;40;113834;-56
2021/05/04 06:02:50;;;;;;;;;;;;;;;20.67;39.82;99378.81;2169456;40;114018;-55
2021/05/04 06:04:21;;;;;;;;;;;;;;;20.70;39.42;99368.91;2169959;40;113787;-57
2021/05/04 06:05:52;;;;;;;;;;;;;;;20.72;39.68;99364.56;2169200;40;114448;-54
2021/05/04 06:07:23;;;;;;;;;;;;;;;20.76;39.45;99357.06;2169530;40;114236;-56
2021/05/04 06:08:54;;;;;;;;;;;;;;;20.79;39.70;99376.06;2170046;40;114011;-58
2021/05/04 06:10:26;;;;;;;;;;;;;;;20.82;39.45;99371.72;2169465;40;113702;-56
2021/05/04 06:11:57;;;;;;;;;;;;;;;20.85;39.33;99380.25;2162282;40;114098;-58
2021/05/04 06:13:28;;;;;;;;;;;;;;;20.89;39.37;99388.00;2163967;40;114118;-55
2021/05/04 06:14:59;;;;;;;;;;;;;;;20.92;39.41;99378.88;2166979;40;114036;-59
2021/05/04 06:16:30;;;;;;;;;;;;;;;20.95;39.25;99380.97;2167758;40;113993;-56
2021/05/04 06:18:02;;;;;;;;;;;;;;;20.98;39.23;99383.09;2168014;40;113756;-58
2021/05/04 06:19:33;;;;;;;;;;;;;;;21.02;39.63;99384.03;2166224;40;113994;-55
2021/05/04 06:21:04;;;;;;;;;;;;;;;21.03;39.65;99397.69;2168085;40;113604;-54
2021/05/04 06:22:35;;;;;;;;;;;;;;;21.06;38.97;99401.81;2169552;40;114864;-55
2021/05/04 06:24:06;;;;;;;;;;;;;;;21.08;38.83;99403.09;2168893;40;115175;-57
2021/05/04 06:25:39;;;;;;;;;;;;;;;21.10;38.94;99406.38;2166203;40;115140;-57
2021/05/04 06:27:10;;;;;;;;;;;;;;;21.12;39.05;99417.28;2167877;40;115041;-56
2021/05/04 06:28:47;;;;;;;;;;;;;;;21.14;39.05;99412.97;2169575;40;115026;-58
2021/05/04 06:30:18;;;;;;;;;;;;;;;21.17;38.63;99408.63;2168770;40;115391;-57
2021/05/04 06:31:56;;;;;;;;;;;;;;;21.18;38.76;99427.13;2168499;40;114819;-57
2021/05/04 06:33:28;;;;;;;;;;;;;;;21.18;38.85;99421.50;2169005;40;114807;-57
2021/05/04 06:34:59;;;;;;;;;;;;;;;21.19;38.61;99406.31;2165266;40;114800;-56
2021/05/04 06:36:30;;;;;;;;;;;;;;;21.21;38.51;99429.25;2169396;40;115099;-55
2021/05/04 06:38:04;;;;;;;;;;;;;;;21.20;38.53;99425.63;2169709;40;114949;-55
2021/05/04 06:39:35;;;;;;;;;;;;;;;21.21;38.58;99430.03;2169413;40;114982;-54
2021/05/04 06:41:07;;;;;;;;;;;;;;;21.22;38.45;99425.25;2167508;40;115159;-54
2021/05/04 06:42:38;;;;;;;;;;;;;;;21.22;37.86;99437.31;2171339;40;115695;-56
2021/05/04 06:44:09;;;;;;;;;;;;;;;21.23;38.30;99443.75;2169668;40;115736;-56
2021/05/04 06:45:40;;;;;;;;;;;;;;;21.24;37.84;99445.41;2168614;40;115715;-59
2021/05/04 06:47:12;;;;;;;;;;;;;;;21.26;38.20;99451.47;2169097;40;116204;-55
2021/05/04 06:48:44;;;;;;;;;;;;;;;21.28;38.23;99451.94;2169373;40;115806;-56
2021/05/04 06:50:15;;;;;;;;;;;;;;;21.30;37.84;99450.41;2169919;40;115633;-57
2021/05/04 06:51:46;;;;;;;;;;;;;;;21.27;37.67;99469.97;2169518;40;115598;-58
2021/05/04 06:53:17;;;;;;;;;;;;;;;21.16;36.72;99466.00;2169191;40;115584;-55
2021/05/04 06:54:49;;;;;;;;;;;;;;;21.14;35.87;99474.75;2167799;40;115985;-57
2021/05/04 06:56:20;;;;;;;;;;;;;;;21.14;37.23;99466.31;2167920;40;115703;-54
2021/05/04 06:57:51;;;;;;;;;;;;;;;21.18;36.16;99458.03;2168333;40;115457;-56
2021/05/04 06:59:22;;;;;;;;;;;;;;;21.16;35.60;99471.59;2168176;40;115491;-54
2021/05/04 07:00:53;;;;;;;;;;;;;;;21.12;35.54;99479.84;2168257;40;115699;-55
2021/05/04 07:02:25;;;;;;;;;;;;;;;21.10;35.96;99470.97;2168325;40;116307;-55
2021/05/04 07:03:56;;;;;;;;;;;;;;;21.10;35.41;99489.81;2168563;40;115517;-54
2021/05/04 07:05:27;;;;;;;;;;;;;;;21.07;35.37;99482.91;2169179;40;115719;-55
2021/05/04 07:06:58;;;;;;;;;;;;;;;21.05;35.56;99493.66;2169521;40;113786;-55
2021/05/04 07:08:30;;;;;;;;;;;;;;;21.09;35.38;99517.06;2167967;40;113838;-55
2021/05/04 07:10:03;;;;;;;;;;;;;;;21.06;35.23;99500.94;2165347;40;113750;-57
2021/05/04 07:11:34;;;;;;;;;;;;;;;21.05;35.42;99521.75;2164901;40;114010;-57
2021/05/04 07:13:05;;;;;;;;;;;;;;;21.02;34.90;99508.41;2165001;40;113812;-55
2021/05/04 07:14:38;;;;;;;;;;;;;;;21.01;35.51;99512.38;2165857;40;113962;-53
2021/05/04 07:16:09;;;;;;;;;;;;;;;21.04;34.85;99519.28;2167244;40;114192;-54
2021/05/04 07:17:41;;;;;;;;;;;;;;;20.69;33.69;99549.69;2164980;40;114273;-53
2021/05/04 07:19:12;;;;;;;;;;;;;;;20.63;33.74;99522.97;2167642;40;113623;-54
2021/05/04 07:20:43;;;;;;;;;;;;;;;20.59;34.54;99516.41;2167824;40;115302;-57
2021/05/04 07:22:14;;;;;;;;;;;;;;;20.62;34.00;99519.38;2167636;40;113940;-57
2021/05/04 07:23:45;;;;;;;;;;;;;;;20.63;34.19;99529.41;2166244;40;113971;-55
2021/05/04 07:25:20;;;;;;;;;;;;;;;20.65;34.13;99517.84;2166006;40;114365;-56
2021/05/04 07:26:51;;;;;;;;;;;;;;;20.66;34.38;99530.72;2170190;40;113741;-55
2021/05/04 07:28:22;;;;;;;;;;;;;;;20.66;34.17;99551.19;2166750;40;115457;-54
2021/05/04 07:29:58;;;;;;;;;;;;;;;20.64;34.02;99533.88;2165236;40;114926;-54
2021/05/04 07:31:31;;;;;;;;;;;;;;;20.62;34.27;99524.16;2166970;40;114986;-54
2021/05/04 07:33:03;;;;;;;;;;;;;;;20.62;34.22;99541.00;2163046;40;114951;-56
2021/05/04 07:34:34;;;;;;;;;;;;;;;20.64;34.25;99533.88;2168704;40;114971;-54
2021/05/04 07:36:05;;;;;;;;;;;;;;;20.61;34.05;99526.16;2167986;40;115504;-55
2021/05/04 07:37:38;;;;;;;;;;;;;;;20.60;33.95;99540.50;2168305;40;114851;-54
2021/05/04 07:39:09;;;;;;;;;;;;;;;20.59;34.26;99553.72;2167479;40;114974;-55
2021/05/04 07:40:41;;;;;;;;;;;;;;;20.56;34.07;99554.41;2168350;40;114988;-55
2021/05/04 07:42:13;;;;;;;;;;;;;;;20.56;34.05;99537.56;2167510;40;114093;-54
2021/05/04 07:43:45;;;;;;;;;;;;;;;20.52;34.28;99547.84;2168241;40;114849;-56
2021/05/04 07:45:20;;;;;;;;;;;;;;;20.49;34.28;99550.53;2164374;40;114299;-54
2021/05/04 07:46:58;;;;;;;;;;;;;;;20.50;34.38;99552.13;2167588;40;114264;-54
2021/05/04 07:48:30;;;;;;;;;;;;;;;20.48;33.87;99555.31;2170929;40;114861;-56
2021/05/04 07:50:02;;;;;;;;;;;;;;;20.50;34.98;99550.16;2167936;40;114980;-54